Time;durP1;ratioP1;P1;durP2;ratioP2;P2;SDS_P1;SDS_P2;PMS_P1;PMS_P2;Temp;Humidity;BMP_temperature;BMP_pressure;BME280_temperature;BME280_humidity;BME280_pressure;Samples;Min_cycle;Max_cycle;Signal;HPM_P1;HPM_P2
2022/07/08 00:01:43;;;;;;;4.93;2.42;;;;;;;17.71;76.43;99618.84;5089880;27;20027;-71
2022/07/08 00:04:08;;;;;;;3.85;3.30;;;;;;;17.67;76.86;99620.16;5088179;27;20051;-71
2022/07/08 00:06:33;;;;;;;5.10;2.65;;;;;;;17.63;75.96;99613.34;5107323;27;20035;-71
2022/07/08 00:08:58;;;;;;;8.82;3.35;;;;;;;17.63;76.15;99621.44;5107944;27;20401;-73
2022/07/08 00:11:23;;;;;;;5.32;3.30;;;;;;;17.62;75.67;99621.56;5086920;27;20039;-72
2022/07/08 00:13:48;;;;;;;2.92;2.15;;;;;;;17.62;75.45;99622.41;5108074;27;20042;-73
2022/07/08 00:16:13;;;;;;;7.05;2.80;;;;;;;17.63;74.95;99623.28;5104664;27;20122;-71
2022/07/08 00:18:38;;;;;;;3.80;2.90;;;;;;;17.62;75.37;99617.03;5107840;27;20130;-71
2022/07/08 00:21:02;;;;;;;5.18;2.08;;;;;;;17.61;75.42;99617.16;5110748;27;20532;-73
2022/07/08 00:23:27;;;;;;;2.90;1.90;;;;;;;17.58;75.35;99621.06;5090701;27;20031;-72
2022/07/08 00:25:52;;;;;;;4.88;2.22;;;;;;;17.54;75.44;99611.56;5093318;27;20042;-73
2022/07/08 00:28:17;;;;;;;2.47;2.28;;;;;;;17.54;75.61;99611.56;5108125;27;20511;-70
2022/07/08 00:30:42;;;;;;;2.40;2.20;;;;;;;17.51;76.33;99606.47;5110320;27;20050;-68
2022/07/08 00:33:06;;;;;;;5.97;3.08;;;;;;;17.46;76.14;99600.72;5088617;27;20026;-71
2022/07/08 00:35:31;;;;;;;2.78;2.50;;;;;;;17.43;76.64;99603.72;5106303;27;20568;-70
2022/07/08 00:37:56;;;;;;;2.45;1.98;;;;;;;17.39;76.73;99615.78;5086315;27;20035;-70
2022/07/08 00:40:21;;;;;;;4.57;2.85;;;;;;;17.36;77.24;99605.34;5107463;27;20457;-73
2022/07/08 00:42:48;;;;;;;2.75;2.45;;;;;;;17.32;77.01;99606.63;5092459;27;20145;-70
2022/07/08 00:45:13;;;;;;;3.88;2.80;;;;;;;17.29;77.01;99613.16;5090577;27;20041;-72
2022/07/08 00:47:38;;;;;;;6.32;2.60;;;;;;;17.27;77.12;99614.31;5074188;27;20472;-72
2022/07/08 00:50:03;;;;;;;4.57;3.33;;;;;;;17.25;77.15;99617.19;5067800;27;20392;-74
2022/07/08 00:52:28;;;;;;;4.72;3.25;;;;;;;17.21;77.25;99615.78;5086226;27;20044;-72
2022/07/08 00:54:53;;;;;;;3.25;2.75;;;;;;;17.19;77.36;99611.56;5104521;27;20034;-73
2022/07/08 00:57:18;;;;;;;4.55;2.28;;;;;;;17.18;76.86;99605.31;5070492;27;20133;-72
2022/07/08 00:59:43;;;;;;;2.38;2.17;;;;;;;17.18;76.36;99609.84;5087827;27;20126;-73
2022/07/08 01:02:08;;;;;;;2.55;2.13;;;;;;;17.19;76.32;99608.84;5105637;27;20053;-74
2022/07/08 01:04:35;;;;;;;4.20;2.47;;;;;;;17.16;75.18;99614.53;5105725;27;20117;-73
2022/07/08 01:07:00;;;;;;;2.10;1.90;;;;;;;17.11;74.57;99612.31;5087676;27;20049;-71
2022/07/08 01:09:25;;;;;;;2.65;2.35;;;;;;;17.11;74.95;99614.16;5073564;27;20505;-71
2022/07/08 01:11:50;;;;;;;4.22;2.10;;;;;;;17.14;74.66;99616.56;5108264;27;20050;-70
2022/07/08 01:14:16;;;;;;;3.42;2.50;;;;;;;17.14;74.85;99621.94;5074150;27;20130;-73
2022/07/08 01:16:41;;;;;;;2.00;1.80;;;;;;;17.12;75.66;99629.34;5102177;27;20046;-72
2022/07/08 01:19:06;;;;;;;3.03;2.10;;;;;;;17.09;75.49;99624.25;5109394;27;20509;-72
2022/07/08 01:21:31;;;;;;;2.78;2.55;;;;;;;17.04;76.10;99622.84;5079937;27;20043;-76
2022/07/08 01:23:55;;;;;;;2.80;2.30;;;;;;;17.03;75.24;99614.94;5094053;27;20042;-74
2022/07/08 01:26:20;;;;;;;3.63;2.60;;;;;;;17.05;75.96;99616.44;5090889;27;20423;-74
2022/07/08 01:28:45;;;;;;;2.58;2.40;;;;;;;17.04;75.70;99627.41;5102777;27;20031;-72
2022/07/08 01:31:10;;;;;;;2.10;1.90;;;;;;;17.00;75.53;99621.47;5109305;27;20535;-72
2022/07/08 01:33:35;;;;;;;4.35;2.08;;;;;;;16.97;73.71;99624.44;5103358;27;20138;-69
2022/07/08 01:36:00;;;;;;;3.40;2.17;;;;;;;16.97;75.39;99627.13;5104432;27;20039;-74
2022/07/08 01:38:25;;;;;;;2.53;2.25;;;;;;;16.98;76.63;99639.63;5119324;27;20493;-74
2022/07/08 01:40:49;;;;;;;4.45;2.20;;;;;;;16.97;77.52;99632.53;5067904;27;20592;-73
2022/07/08 01:43:14;;;;;;;4.03;2.00;;;;;;;16.97;78.00;99629.84;5099637;27;20531;-74
2022/07/08 01:45:39;;;;;;;5.57;2.13;;;;;;;16.99;77.71;99646.69;5093593;27;20033;-74
2022/07/08 01:48:04;;;;;;;2.95;2.38;;;;;;;16.99;77.83;99646.69;5105061;27;20179;-70
2022/07/08 01:50:29;;;;;;;5.68;2.50;;;;;;;17.00;77.60;99643.00;5118156;27;20046;-68
2022/07/08 01:52:54;;;;;;;5.03;2.10;;;;;;;17.01;77.15;99647.41;5099888;27;20038;-69
2022/07/08 01:55:19;;;;;;;3.45;1.95;;;;;;;17.02;77.01;99651.78;5098931;27;20543;-69
2022/07/08 01:57:44;;;;;;;2.63;2.38;;;;;;;17.05;77.22;99643.38;5103311;27;20510;-69
2022/07/08 02:00:09;;;;;;;3.00;2.10;;;;;;;17.06;76.97;99639.69;5120872;27;20094;-69
2022/07/08 02:02:37;;;;;;;5.47;2.70;;;;;;;17.09;76.24;99638.56;5085546;27;20111;-74
2022/07/08 02:05:02;;;;;;;4.28;2.47;;;;;;;17.10;76.74;99640.25;5101852;27;20511;-72
2022/07/08 02:07:28;;;;;;;2.88;2.50;;;;;;;17.11;76.19;99627.63;5121801;27;20049;-75
2022/07/08 02:09:53;;;;;;;6.30;3.00;;;;;;;17.10;76.14;99625.94;5086927;27;20454;-78
2022/07/08 02:12:18;;;;;;;5.65;2.92;;;;;;;17.10;76.49;99625.94;5104301;27;20630;-76
2022/07/08 02:14:43;;;;;;;3.15;2.20;;;;;;;17.10;76.79;99634.88;5119801;27;20050;-74
2022/07/08 02:17:08;;;;;;;5.82;2.85;;;;;;;17.12;77.07;99642.81;5088036;28;20039;-73
2022/07/08 02:19:33;;;;;;;5.93;2.97;;;;;;;17.15;77.03;99639.81;5081052;28;20054;-67
2022/07/08 02:21:58;;;;;;;4.78;3.00;;;;;;;17.18;77.27;99644.88;5101948;28;20035;-72
2022/07/08 02:24:23;;;;;;;3.83;3.03;;;;;;;17.23;77.08;99643.44;5082837;28;20652;-71
2022/07/08 02:26:48;;;;;;;4.68;2.88;;;;;;;17.31;76.62;99648.06;5080644;28;20457;-67
2022/07/08 02:29:12;;;;;;;2.45;2.25;;;;;;;17.38;75.96;99649.16;5107498;27;20450;-72
2022/07/08 02:31:37;;;;;;;2.78;2.22;;;;;;;17.49;75.95;99657.03;5102710;27;20049;-71
2022/07/08 02:34:02;;;;;;;6.57;2.53;;;;;;;17.57;75.36;99650.84;5102954;27;20053;-71
2022/07/08 02:36:27;;;;;;;12.80;2.05;;;;;;;17.66;74.98;99656.19;5120714;27;20094;-68
2022/07/08 02:38:52;;;;;;;2.42;2.22;;;;;;;17.75;74.02;99657.97;5101268;27;20107;-71
2022/07/08 02:41:17;;;;;;;2.63;2.40;;;;;;;17.84;73.60;99660.72;5114999;27;20520;-71
2022/07/08 02:43:42;;;;;;;2.90;2.17;;;;;;;17.93;73.38;99660.66;5079617;27;20493;-71
2022/07/08 02:46:06;;;;;;;2.53;2.30;;;;;;;18.01;73.66;99671.50;5101244;27;20569;-73
2022/07/08 02:48:31;;;;;;;2.60;2.05;;;;;;;18.08;72.87;99677.94;5100676;27;20039;-70
2022/07/08 02:50:57;;;;;;;3.92;1.98;;;;;;;18.15;72.27;99670.09;5080577;27;20114;-67
2022/07/08 02:53:23;;;;;;;3.90;2.38;;;;;;;18.21;71.72;99682.94;5080354;27;20483;-65
2022/07/08 02:55:47;;;;;;;3.67;2.50;;;;;;;18.25;71.70;99678.94;5098484;27;20116;-70
2022/07/08 02:58:12;;;;;;;2.28;2.08;;;;;;;18.33;71.37;99679.00;5098343;27;20039;-69
2022/07/08 03:00:37;;;;;;;3.25;2.30;;;;;;;18.37;71.02;99685.78;5116058;27;20088;-69
2022/07/08 03:03:02;;;;;;;5.35;1.98;;;;;;;18.42;70.99;99687.97;5101610;27;20103;-69
2022/07/08 03:05:27;;;;;;;2.38;2.00;;;;;;;18.49;70.67;99692.59;5119757;27;20047;-68
2022/07/08 03:07:51;;;;;;;5.07;2.75;;;;;;;18.60;71.02;99688.81;5083631;27;20039;-71
2022/07/08 03:10:16;;;;;;;4.78;1.95;;;;;;;18.68;70.74;99694.25;5120332;27;20073;-66
2022/07/08 03:12:41;;;;;;;2.13;2.03;;;;;;;18.76;70.17;99696.16;5102187;27;20126;-74
2022/07/08 03:15:06;;;;;;;1.92;1.83;;;;;;;18.76;68.93;99698.84;5120295;27;20134;-71
2022/07/08 03:17:31;;;;;;;3.15;2.45;;;;;;;18.78;69.09;99699.53;5120808;27;20051;-70
2022/07/08 03:19:56;;;;;;;7.93;3.05;;;;;;;18.79;68.52;99704.78;5121082;27;20099;-73
2022/07/08 03:22:20;;;;;;;5.25;3.10;;;;;;;18.84;68.39;99704.31;5120635;27;20563;-72
2022/07/08 03:24:45;;;;;;;5.25;3.03;;;;;;;18.90;68.77;99711.78;5103563;27;20030;-73
2022/07/08 03:27:10;;;;;;;3.30;2.67;;;;;;;18.95;68.48;99712.16;5105364;27;20564;-71
2022/07/08 03:29:35;;;;;;;4.97;3.00;;;;;;;19.04;68.64;99710.31;5106255;27;20038;-71
2022/07/08 03:31:59;;;;;;;5.32;2.92;;;;;;;19.16;68.67;99723.38;5086064;27;20046;-73
2022/07/08 03:34:24;;;;;;;5.90;3.15;;;;;;;19.28;68.21;99720.41;5120430;27;20038;-73
2022/07/08 03:36:49;;;;;;;2.65;2.45;;;;;;;19.34;67.99;99722.44;5119017;27;20042;-73
2022/07/08 03:39:14;;;;;;;3.55;3.15;;;;;;;19.42;67.76;99719.75;5120820;27;20058;-72
2022/07/08 03:41:38;;;;;;;5.82;2.80;;;;;;;19.48;67.14;99721.81;5102142;27;20412;-73
2022/07/08 03:44:03;;;;;;;5.03;3.33;;;;;;;19.56;67.48;99725.41;5120663;27;20096;-74
2022/07/08 03:46:28;;;;;;;3.72;2.97;;;;;;;19.65;67.61;99728.13;5100237;27;20042;-74
2022/07/08 03:48:53;;;;;;;6.32;2.65;;;;;;;19.70;67.15;99726.63;5099697;27;20030;-72
2022/07/08 03:51:20;;;;;;;2.72;2.53;;;;;;;19.73;66.46;99723.59;5120368;27;20054;-71
2022/07/08 03:53:44;;;;;;;3.72;3.20;;;;;;;19.72;65.27;99727.31;5101303;27;20053;-73
2022/07/08 03:56:11;;;;;;;2.80;2.50;;;;;;;19.71;65.27;99722.06;5101792;27;20038;-72
2022/07/08 03:58:37;;;;;;;2.92;2.65;;;;;;;19.74;66.38;99733.41;5119452;27;20043;-70
2022/07/08 04:01:02;;;;;;;3.08;2.78;;;;;;;19.86;66.22;99725.81;5119863;27;20047;-76
2022/07/08 04:03:27;;;;;;;3.70;3.15;;;;;;;20.03;65.68;99722.09;5100286;27;20493;-73
2022/07/08 04:05:52;;;;;;;4.43;3.13;;;;;;;20.17;65.17;99734.97;5120451;27;20156;-73
2022/07/08 04:08:18;;;;;;;8.93;3.30;;;;;;;20.24;63.83;99719.75;5124726;27;20061;-72
2022/07/08 04:10:43;;;;;;;3.55;3.25;;;;;;;20.29;63.66;99732.78;5102601;27;20134;-72
2022/07/08 04:13:08;;;;;;;5.57;3.45;;;;;;;20.30;62.95;99721.78;5120776;27;20155;-71
2022/07/08 04:15:33;;;;;;;4.05;3.10;;;;;;;20.44;62.30;99727.53;5119365;27;20053;-72
2022/07/08 04:17:58;;;;;;;7.53;3.25;;;;;;;20.64;61.38;99735.16;5096813;27;20137;-74
2022/07/08 04:20:23;;;;;;;8.48;3.15;;;;;;;20.85;60.34;99731.03;5099271;27;20096;-72
2022/07/08 04:22:47;;;;;;;3.88;3.05;;;;;;;21.12;59.58;99730.59;5097305;27;20046;-71
2022/07/08 04:25:12;;;;;;;4.00;3.00;;;;;;;21.49;58.44;99726.41;5097041;27;20107;-71
2022/07/08 04:27:37;;;;;;;6.18;2.92;;;;;;;21.72;57.55;99727.31;5096203;27;20386;-73
2022/07/08 04:30:03;;;;;;;4.15;3.42;;;;;;;21.82;57.12;99733.34;5103139;27;20070;-73
2022/07/08 04:32:28;;;;;;;2.72;2.53;;;;;;;21.69;56.52;99728.50;5098974;27;20469;-66
2022/07/08 04:34:53;;;;;;;2.55;2.20;;;;;;;21.44;56.41;99723.41;5097860;27;20483;-69
2022/07/08 04:37:18;;;;;;;5.50;2.83;;;;;;;21.13;57.18;99735.00;5095187;27;20531;-69
2022/07/08 04:39:43;;;;;;;3.78;2.63;;;;;;;20.82;57.95;99734.94;5094810;27;20074;-68
2022/07/08 04:42:08;;;;;;;6.15;2.40;;;;;;;20.55;58.83;99738.03;5095995;27;20059;-68
2022/07/08 04:44:33;;;;;;;3.13;2.35;;;;;;;20.35;59.63;99736.66;5096094;27;20430;-70
2022/07/08 04:46:57;;;;;;;2.97;2.60;;;;;;;20.23;60.10;99738.84;5094648;27;20046;-69
2022/07/08 04:49:24;;;;;;;5.53;2.90;;;;;;;20.18;60.33;99741.25;5094568;27;20057;-69
2022/07/08 04:51:49;;;;;;;3.05;2.80;;;;;;;20.20;60.76;99742.75;5095960;27;20391;-68
2022/07/08 04:54:14;;;;;;;4.15;2.63;;;;;;;20.55;60.97;99744.28;5096175;27;20504;-69
2022/07/08 04:56:39;;;;;;;3.35;2.55;;;;;;;20.90;62.00;99736.78;5077696;27;20031;-69
2022/07/08 04:59:04;;;;;;;2.90;2.40;;;;;;;21.58;61.68;99738.91;5096104;27;20413;-69
2022/07/08 05:01:28;;;;;;;3.47;2.78;;;;;;;21.99;60.52;99736.84;5094391;27;20045;-69
2022/07/08 05:03:54;;;;;;;4.22;2.70;;;;;;;22.16;60.19;99734.84;5077382;27;20042;-70
2022/07/08 05:06:18;;;;;;;5.95;3.15;;;;;;;22.36;59.41;99736.00;5095489;27;20039;-68
2022/07/08 05:08:43;;;;;;;4.43;2.55;;;;;;;22.83;59.40;99737.63;5078544;27;20110;-69
2022/07/08 05:11:08;;;;;;;6.45;3.42;;;;;;;23.00;58.01;99734.56;5096397;27;20043;-69
2022/07/08 05:13:33;;;;;;;4.18;3.13;;;;;;;23.19;58.09;99735.88;5094442;27;20043;-69
2022/07/08 05:15:58;;;;;;;4.35;2.80;;;;;;;23.44;56.30;99737.28;5095564;27;20103;-68
2022/07/08 05:18:23;;;;;;;4.22;2.55;;;;;;;23.61;54.81;99728.91;5106523;27;20115;-68
2022/07/08 05:20:47;;;;;;;2.58;2.28;;;;;;;23.92;53.97;99732.22;5115846;27;20047;-69
2022/07/08 05:23:12;;;;;;;3.50;2.13;;;;;;;24.19;51.09;99736.88;5115962;27;20396;-69
2022/07/08 05:25:37;;;;;;;5.07;2.25;;;;;;;24.31;51.07;99728.22;5115919;27;20066;-71
2022/07/08 05:28:02;;;;;;;4.65;2.30;;;;;;;24.43;50.91;99726.63;5097410;27;20040;-70
2022/07/08 05:30:27;;;;;;;2.47;2.15;;;;;;;24.48;49.12;99737.81;5080233;27;20034;-70
2022/07/08 05:32:51;;;;;;;3.00;2.30;;;;;;;24.55;49.73;99738.69;5097418;27;20053;-71
2022/07/08 05:35:16;;;;;;;6.13;2.30;;;;;;;24.55;49.73;99731.34;5116009;27;20046;-70
2022/07/08 05:37:41;;;;;;;3.63;2.67;;;;;;;24.34;48.72;99734.13;5097374;27;20043;-69
2022/07/08 05:40:09;;;;;;;8.52;4.15;;;;;;;24.02;50.03;99735.47;5116016;27;20113;-69
2022/07/08 05:42:34;;;;;;;6.28;4.18;;;;;;;23.70;50.16;99731.31;5116007;27;20444;-70
2022/07/08 05:44:59;;;;;;;6.72;3.88;;;;;;;23.37;50.38;99733.59;5116069;27;20043;-68
2022/07/08 05:47:24;;;;;;;8.07;4.22;;;;;;;23.05;51.61;99732.13;5097935;27;20045;-67
2022/07/08 05:49:48;;;;;;;3.50;3.10;;;;;;;22.82;52.10;99731.34;5116826;27;20115;-66
2022/07/08 05:52:14;;;;;;;5.47;3.30;;;;;;;22.68;52.94;99733.03;5098958;27;20075;-66
2022/07/08 05:54:39;;;;;;;6.95;3.03;;;;;;;22.85;53.34;99741.03;5094964;28;20130;-66
2022/07/08 05:57:04;;;;;;;7.40;3.33;;;;;;;23.06;52.60;99746.56;5094978;27;20129;-67
2022/07/08 05:59:29;;;;;;;5.32;2.53;;;;;;;23.77;51.73;99743.13;5076481;28;20518;-67
2022/07/08 06:01:54;;;;;;;4.68;2.60;;;;;;;24.74;49.19;99751.63;5059897;28;20049;-67
2022/07/08 06:04:19;;;;;;;6.78;2.45;;;;;;;25.25;47.41;99754.09;5059613;28;20122;-67
2022/07/08 06:06:43;;;;;;;5.30;2.45;;;;;;;25.61;44.94;99749.28;5094992;28;20164;-68
2022/07/08 06:09:08;;;;;;;2.80;2.50;;;;;;;25.67;45.06;99751.19;5095794;28;20135;-68
2022/07/08 06:11:33;;;;;;;3.60;2.67;;;;;;;26.30;44.05;99753.66;5096775;27;20035;-69
2022/07/08 06:13:59;;;;;;;3.05;2.38;;;;;;;26.37;43.43;99752.66;5096033;28;20043;-67
2022/07/08 06:16:23;;;;;;;2.30;2.10;;;;;;;26.04;43.90;99749.84;5095093;27;20095;-68
2022/07/08 06:18:48;;;;;;;2.22;2.03;;;;;;;25.54;44.82;99753.81;5079574;27;20051;-67
2022/07/08 06:21:13;;;;;;;8.27;3.17;;;;;;;24.99;45.94;99745.75;5081428;27;20130;-68
2022/07/08 06:23:38;;;;;;;4.28;2.50;;;;;;;24.50;46.75;99757.50;5080525;27;20043;-68
2022/07/08 06:26:03;;;;;;;3.80;2.40;;;;;;;24.07;48.17;99765.66;5099227;27;20131;-68
2022/07/08 06:28:28;;;;;;;12.15;2.22;;;;;;;23.76;49.05;99765.09;5055831;28;20655;-67
2022/07/08 06:30:53;;;;;;;5.18;2.30;;;;;;;23.55;50.12;99765.06;5039136;28;20074;-68
2022/07/08 06:33:18;;;;;;;4.45;2.45;;;;;;;23.39;50.49;99772.34;5055588;28;20087;-68
2022/07/08 06:35:43;;;;;;;2.63;2.42;;;;;;;23.36;51.19;99770.03;5038653;28;20113;-70
2022/07/08 06:38:07;;;;;;;3.55;2.38;;;;;;;23.67;50.11;99768.97;5038276;28;20139;-70
2022/07/08 06:40:32;;;;;;;3.05;2.10;;;;;;;24.22;48.48;99769.22;5055239;28;20036;-70
2022/07/08 06:42:57;;;;;;;5.10;2.45;;;;;;;25.23;46.73;99767.09;5055465;28;20070;-70
2022/07/08 06:45:22;;;;;;;3.47;2.20;;;;;;;26.13;43.80;99763.28;5055427;28;20526;-69
2022/07/08 06:47:47;;;;;;;5.30;2.85;;;;;;;26.59;42.62;99764.22;5055632;28;20046;-70
2022/07/08 06:50:11;;;;;;;3.05;2.10;;;;;;;26.71;42.35;99765.28;5055764;28;20072;-71
2022/07/08 06:52:36;;;;;;;2.88;2.55;;;;;;;26.51;42.44;99758.97;5038728;28;20051;-69
2022/07/08 06:55:02;;;;;;;3.40;2.60;;;;;;;26.17;42.93;99775.50;5055460;28;20194;-70
2022/07/08 06:57:27;;;;;;;2.53;2.28;;;;;;;25.77;43.93;99774.53;5021798;28;20050;-68
2022/07/08 06:59:52;;;;;;;2.75;2.22;;;;;;;25.40;44.76;99776.63;5084200;27;20396;-68
2022/07/08 07:02:17;;;;;;;5.53;3.25;;;;;;;25.15;46.06;99775.47;5098226;27;20505;-68
2022/07/08 07:04:42;;;;;;;6.38;2.47;;;;;;;25.02;46.71;99767.19;5079487;27;20528;-68
2022/07/08 07:07:07;;;;;;;11.85;3.30;;;;;;;24.99;45.76;99764.84;5079686;27;20045;-69
2022/07/08 07:09:33;;;;;;;8.88;3.28;;;;;;;24.87;45.92;99762.63;5079386;27;20085;-68
2022/07/08 07:11:57;;;;;;;6.60;2.50;;;;;;;24.72;45.17;99763.78;5079719;27;20050;-67
2022/07/08 07:14:22;;;;;;;2.58;2.17;;;;;;;25.49;43.50;99761.78;5097780;27;20035;-69
2022/07/08 07:16:47;;;;;;;3.00;2.63;;;;;;;26.30;40.75;99754.50;5079509;27;20050;-70
2022/07/08 07:19:12;;;;;;;2.63;2.42;;;;;;;26.34;40.59;99763.16;5079066;27;20130;-70
2022/07/08 07:21:37;;;;;;;2.85;2.25;;;;;;;25.95;40.32;99752.97;5062588;27;20134;-70
2022/07/08 07:24:02;;;;;;;2.53;2.08;;;;;;;25.57;41.41;99758.03;5098034;27;20094;-70
2022/07/08 07:26:27;;;;;;;5.05;2.35;;;;;;;26.56;41.73;99758.31;5097915;27;20041;-70
2022/07/08 07:28:52;;;;;;;2.90;2.65;;;;;;;28.07;39.92;99765.34;5078673;27;20050;-70
2022/07/08 07:31:17;;;;;;;2.92;2.72;;;;;;;29.46;36.18;99852.97;5104477;27;20069;-69
2022/07/08 07:33:42;;;;;;;7.55;2.78;;;;;;;29.61;35.87;99856.16;5111101;27;20050;-70
2022/07/08 07:36:07;;;;;;;4.50;3.22;;;;;;;28.81;36.68;99864.25;5068766;27;20043;-74
2022/07/08 07:38:34;;;;;;;2.92;2.67;;;;;;;27.94;37.69;99759.94;5115132;27;20050;-74
2022/07/08 07:40:59;;;;;;;11.57;2.45;;;;;;;27.15;39.67;99771.16;5094614;27;20035;-72
2022/07/08 07:43:23;;;;;;;4.60;2.88;;;;;;;26.96;41.36;99778.34;5102208;27;20048;-73
2022/07/08 07:45:48;;;;;;;2.90;2.70;;;;;;;28.80;38.23;99777.50;5098145;27;20604;-73
2022/07/08 07:48:14;;;;;;;3.38;3.05;;;;;;;30.48;34.01;99777.00;5086290;27;20408;-74
2022/07/08 07:50:39;;;;;;;3.80;2.55;;;;;;;31.20;33.23;99880.50;5081558;27;20047;-73
2022/07/08 07:53:04;;;;;;;4.05;2.85;;;;;;;31.59;32.12;99851.38;5097747;27;20039;-72
2022/07/08 07:55:28;;;;;;;7.90;3.30;;;;;;;32.25;31.79;99836.28;5081367;27;20049;-75
2022/07/08 07:57:54;;;;;;;4.38;3.50;;;;;;;32.77;31.40;99792.81;5103320;27;20077;-73
2022/07/08 08:00:18;;;;;;;3.35;2.80;;;;;;;32.88;30.31;99791.06;5098834;27;20099;-72
2022/07/08 08:02:44;;;;;;;3.08;2.65;;;;;;;32.37;30.44;99792.94;5097977;27;20043;-73
2022/07/08 08:05:10;;;;;;;4.57;2.78;;;;;;;31.44;31.66;99852.94;5098392;27;20451;-74
2022/07/08 08:07:39;;;;;;;3.45;2.28;;;;;;;30.57;33.35;99869.19;5062348;27;20037;-73
2022/07/08 08:10:05;;;;;;;2.85;2.65;;;;;;;29.65;34.22;99862.91;5097711;27;20063;-74
2022/07/08 08:12:29;;;;;;;6.60;2.70;;;;;;;29.01;35.51;99783.69;5097766;27;20490;-73
2022/07/08 08:14:54;;;;;;;3.00;2.70;;;;;;;28.50;36.57;99779.22;5097732;27;20512;-72
2022/07/08 08:17:19;;;;;;;4.95;3.25;;;;;;;28.21;38.13;99785.34;5079988;27;20039;-73
2022/07/08 08:19:44;;;;;;;3.58;2.85;;;;;;;28.53;37.14;99776.03;5062918;27;20046;-73
2022/07/08 08:22:09;;;;;;;2.40;2.30;;;;;;;30.33;34.93;99774.69;5079284;27;20046;-73
2022/07/08 08:24:34;;;;;;;2.78;2.58;;;;;;;33.24;30.55;99786.13;5078704;27;20042;-73
2022/07/08 08:26:58;;;;;;;6.05;2.60;;;;;;;35.11;27.37;99851.13;5097129;27;20121;-73
2022/07/08 08:29:23;;;;;;;3.60;3.30;;;;;;;35.71;26.63;99861.00;5097130;27;20433;-74
2022/07/08 08:31:48;;;;;;;2.83;2.63;;;;;;;35.14;26.00;99851.44;5097142;27;20122;-74
2022/07/08 08:34:13;;;;;;;3.40;3.10;;;;;;;34.69;26.50;99854.63;5096974;27;20046;-74
2022/07/08 08:36:38;;;;;;;5.05;3.05;;;;;;;35.57;25.67;99788.53;5097550;27;20035;-74
2022/07/08 08:39:02;;;;;;;2.80;2.60;;;;;;;36.30;24.59;99778.31;5078353;27;20042;-72
2022/07/08 08:41:28;;;;;;;3.55;3.35;;;;;;;35.96;24.77;99781.53;5077563;27;20039;-70
2022/07/08 08:43:53;;;;;;;6.03;3.63;;;;;;;37.13;24.39;99778.09;5096592;27;20042;-72
2022/07/08 08:46:22;;;;;;;4.00;3.53;;;;;;;39.15;22.09;99782.59;5078813;27;20045;-73
2022/07/08 08:48:48;;;;;;;5.00;3.75;;;;;;;39.60;20.91;99832.66;5078853;27;20046;-74
2022/07/08 08:51:16;;;;;;;4.90;4.40;;;;;;;40.30;20.46;99839.34;5098586;27;20099;-72
2022/07/08 08:53:45;;;;;;;4.43;4.00;;;;;;;41.25;19.71;99852.97;5098672;27;20039;-72
2022/07/08 08:56:12;;;;;;;5.55;5.00;;;;;;;41.33;19.13;99796.28;5079812;27;20405;-73
2022/07/08 08:58:46;;;;;;;4.47;4.07;;;;;;;40.47;19.82;99794.94;5096926;27;20122;-70
2022/07/08 09:01:11;;;;;;;4.78;4.38;;;;;;;39.22;21.29;99799.81;5097931;27;20443;-73
2022/07/08 09:03:36;;;;;;;4.10;3.80;;;;;;;39.90;20.67;99883.41;5080833;27;20493;-73
2022/07/08 09:06:02;;;;;;;4.65;4.22;;;;;;;41.18;19.04;99796.59;5102950;27;20043;-76
2022/07/08 09:08:27;;;;;;;5.30;4.90;;;;;;;41.98;18.43;99798.13;5104153;27;20103;-75
2022/07/08 09:10:51;;;;;;;5.38;4.97;;;;;;;42.67;17.72;99796.78;5075471;27;20075;-72
2022/07/08 09:13:16;;;;;;;5.75;5.25;;;;;;;42.36;17.80;99798.66;5109411;27;20042;-72
2022/07/08 09:15:44;;;;;;;4.75;4.43;;;;;;;41.11;18.37;99796.13;5107768;27;20053;-72
2022/07/08 09:18:12;;;;;;;5.22;4.82;;;;;;;40.33;19.23;99801.59;5086783;28;20055;-72
2022/07/08 09:20:48;;;;;;;5.57;4.90;;;;;;;40.55;20.31;99794.25;5105237;27;20599;-70
2022/07/08 09:23:15;;;;;;;5.47;5.07;;;;;;;40.20;19.11;99791.97;5086655;28;20043;-71
2022/07/08 09:25:40;;;;;;;5.93;4.85;;;;;;;40.40;19.31;99788.91;5106405;27;20410;-72
2022/07/08 09:28:05;;;;;;;5.28;4.60;;;;;;;41.86;17.42;99783.81;5102074;27;20043;-74
2022/07/08 09:30:30;;;;;;;5.93;5.40;;;;;;;43.78;16.25;99800.63;5098582;27;20099;-73
2022/07/08 09:33:00;;;;;;;10.43;7.35;;;;;;;45.61;14.80;99806.72;5097452;28;20047;-73
2022/07/08 09:35:35;;;;;;;8.45;7.75;;;;;;;47.21;14.25;99802.53;5097037;28;20039;-73
2022/07/08 09:38:01;;;;;;;8.30;7.70;;;;;;;47.58;13.08;99806.28;5077909;28;20039;-72
2022/07/08 09:40:26;;;;;;;9.00;7.35;;;;;;;46.25;14.50;99798.91;5097531;28;20039;-73
2022/07/08 09:42:51;;;;;;;7.63;6.93;;;;;;;43.99;16.07;99800.88;5097862;28;20100;-74
2022/07/08 09:45:16;;;;;;;6.07;5.47;;;;;;;42.08;17.16;99789.50;5080615;28;20043;-74
2022/07/08 09:47:41;;;;;;;7.70;6.20;;;;;;;42.15;16.89;99780.66;5080532;28;20493;-72
2022/07/08 09:50:08;;;;;;;5.28;4.97;;;;;;;42.97;16.02;99784.00;5057054;28;20035;-73
2022/07/08 09:52:33;;;;;;;6.03;5.55;;;;;;;42.66;16.12;99775.53;5067865;27;20053;-72
2022/07/08 09:55:03;;;;;;;5.18;4.82;;;;;;;41.52;17.47;99789.78;5105837;27;20122;-73
2022/07/08 09:57:30;;;;;;;5.47;5.00;;;;;;;39.55;19.61;99775.75;5110458;27;20051;-72
2022/07/08 09:59:55;;;;;;;4.97;4.45;;;;;;;38.01;21.47;99768.09;5109171;27;20046;-72
2022/07/08 10:02:20;;;;;;;5.75;4.60;;;;;;;38.61;20.64;99768.81;5105551;27;20143;-73
2022/07/08 10:04:47;;;;;;;5.25;4.82;;;;;;;40.69;18.88;99773.91;5104439;27;20118;-74
2022/07/08 10:07:12;;;;;;;6.10;5.50;;;;;;;43.00;16.68;99779.75;5084937;27;20091;-74
2022/07/08 10:09:36;;;;;;;6.80;6.30;;;;;;;44.98;14.63;99776.59;5083270;27;20039;-74
2022/07/08 10:12:03;;;;;;;8.05;7.55;;;;;;;46.75;13.40;99771.81;5083198;27;20051;-74
2022/07/08 10:14:28;;;;;;;9.48;8.88;;;;;;;48.24;12.41;99769.28;5100760;27;20070;-70
2022/07/08 10:16:55;;;;;;;10.95;10.25;;;;;;;49.51;11.52;99784.63;5099145;27;20042;-71
2022/07/08 10:19:24;;;;;;;13.45;12.57;;;;;;;50.27;11.13;99784.06;5077401;27;20582;-71
2022/07/08 10:21:54;;;;;;;14.75;13.93;;;;;;;50.45;11.02;99788.13;5077623;28;20051;-70
2022/07/08 10:24:27;;;;;;;14.88;14.05;;;;;;;51.23;10.92;99785.25;5079233;27;20046;-74
2022/07/08 10:26:52;;;;;;;18.42;17.33;;;;;;;51.34;10.77;99780.56;5080068;28;20043;-74
2022/07/08 10:29:17;;;;;;;17.42;16.33;;;;;;;50.61;11.41;99775.88;5080777;28;20040;-75
2022/07/08 10:31:53;;;;;;;13.85;13.05;;;;;;;49.66;12.15;99778.97;5079152;28;20175;-74
2022/07/08 10:34:21;;;;;;;12.55;11.43;;;;;;;47.29;13.03;99764.94;5080523;27;20043;-73
2022/07/08 10:36:48;;;;;;;10.68;9.82;;;;;;;44.75;15.27;99768.34;5079833;28;20039;-74
2022/07/08 10:39:13;;;;;;;8.65;7.95;;;;;;;42.11;16.82;99751.59;5078321;28;20423;-74
2022/07/08 10:41:38;;;;;;;7.20;6.50;;;;;;;39.76;18.64;99742.84;5078877;28;20054;-73
2022/07/08 10:44:05;;;;;;;6.18;5.63;;;;;;;38.08;20.36;99742.72;5080623;28;20118;-74
2022/07/08 10:46:29;;;;;;;9.55;5.35;;;;;;;36.84;22.18;99734.19;5062536;28;20069;-74
2022/07/08 10:48:59;;;;;;;5.15;4.75;;;;;;;35.87;22.68;99741.56;5079784;28;20040;-73
2022/07/08 10:51:24;;;;;;;5.63;4.63;;;;;;;34.70;24.04;99723.34;5079623;28;20043;-74
2022/07/08 10:54:06;;;;;;;3.95;3.60;;;;;;;33.95;24.89;99731.78;5082450;28;20035;-73
2022/07/08 10:56:48;;;;;;;14.82;6.38;;;;;;;33.55;25.69;99721.88;5092802;28;20495;-73
2022/07/08 10:59:26;;;;;;;4.28;3.90;;;;;;;32.90;26.81;99730.88;5094491;28;20047;-73
2022/07/08 11:02:02;;;;;;;4.72;3.55;;;;;;;32.15;27.66;99724.88;5084793;28;20490;-73
2022/07/08 11:04:33;;;;;;;5.18;3.65;;;;;;;31.57;28.71;99725.91;5079090;28;20123;-74
2022/07/08 11:07:23;;;;;;;5.22;4.05;;;;;;;31.22;29.34;99734.25;5079546;28;20043;-73
2022/07/08 11:09:55;;;;;;;4.70;3.72;;;;;;;30.48;30.88;99728.31;5050401;28;20514;-73
2022/07/08 11:12:24;;;;;;;4.85;3.50;;;;;;;30.10;31.40;99725.97;5078336;28;20414;-73
2022/07/08 11:14:51;;;;;;;4.78;3.30;;;;;;;29.69;31.75;99726.72;5079612;28;20035;-73
2022/07/08 11:17:17;;;;;;;3.60;3.30;;;;;;;29.43;32.20;99721.56;5061740;27;20106;-75
2022/07/08 11:19:43;;;;;;;3.30;3.10;;;;;;;29.07;33.12;99720.47;5097854;27;20457;-71
2022/07/08 11:22:09;;;;;;;4.97;3.58;;;;;;;28.72;32.71;99705.59;5097950;27;20568;-72
2022/07/08 11:24:36;;;;;;;4.93;2.97;;;;;;;28.29;33.79;99716.50;5099054;27;20043;-77